sensor_id;sensor_type;location;lat;lon;timestamp;P1;durP1;ratioP1;P2;durP2;ratioP2
16029;SDS011;34770;49.272;11.070;2022-11-20T00:01:05;28.53;;;16.87;;
16029;SDS011;34770;49.272;11.070;2022-11-20T00:03:42;24.57;;;14.30;;
16029;SDS011;34770;49.272;11.070;2022-11-20T00:06:09;26.83;;;17.27;;
16029;SDS011;34770;49.272;11.070;2022-11-20T00:08:36;27.03;;;14.97;;
16029;SDS011;34770;49.272;11.070;2022-11-20T00:11:03;24.23;;;15.53;;
16029;SDS011;34770;49.272;11.070;2022-11-20T00:13:33;27.03;;;16.53;;
16029;SDS011;34770;49.272;11.070;2022-11-20T00:16:00;30.27;;;17.40;;
16029;SDS011;34770;49.272;11.070;2022-11-20T00:18:27;26.53;;;16.07;;
16029;SDS011;34770;49.272;11.070;2022-11-20T00:20:53;26.73;;;15.97;;
16029;SDS011;34770;49.272;11.070;2022-11-20T00:23:19;30.00;;;17.50;;
16029;SDS011;34770;49.272;11.070;2022-11-20T00:25:44;30.60;;;17.33;;
16029;SDS011;34770;49.272;11.070;2022-11-20T00:28:10;26.90;;;16.30;;
16029;SDS011;34770;49.272;11.070;2022-11-20T00:30:36;28.07;;;16.70;;
16029;SDS011;34770;49.272;11.070;2022-11-20T00:33:02;28.07;;;17.07;;
16029;SDS011;34770;49.272;11.070;2022-11-20T00:35:27;28.43;;;17.30;;
16029;SDS011;34770;49.272;11.070;2022-11-20T00:37:56;25.83;;;15.50;;
16029;SDS011;34770;49.272;11.070;2022-11-20T00:40:21;28.50;;;16.60;;
16029;SDS011;34770;49.272;11.070;2022-11-20T00:42:47;24.43;;;14.83;;
16029;SDS011;34770;49.272;11.070;2022-11-20T00:45:12;26.77;;;16.03;;
16029;SDS011;34770;49.272;11.070;2022-11-20T00:47:38;29.87;;;16.73;;
16029;SDS011;34770;49.272;11.070;2022-11-20T00:50:04;23.33;;;14.83;;
16029;SDS011;34770;49.272;11.070;2022-11-20T00:52:29;29.03;;;16.43;;
16029;SDS011;34770;49.272;11.070;2022-11-20T00:54:55;29.37;;;17.10;;
16029;SDS011;34770;49.272;11.070;2022-11-20T00:57:20;26.77;;;17.30;;
16029;SDS011;34770;49.272;11.070;2022-11-20T00:59:46;29.43;;;16.00;;
16029;SDS011;34770;49.272;11.070;2022-11-20T01:02:11;27.47;;;16.10;;
16029;SDS011;34770;49.272;11.070;2022-11-20T01:04:37;28.27;;;16.47;;
16029;SDS011;34770;49.272;11.070;2022-11-20T01:07:02;30.40;;;18.87;;
16029;SDS011;34770;49.272;11.070;2022-11-20T01:09:28;26.87;;;15.37;;
16029;SDS011;34770;49.272;11.070;2022-11-20T01:11:55;28.17;;;17.13;;
16029;SDS011;34770;49.272;11.070;2022-11-20T01:14:21;30.30;;;16.83;;
16029;SDS011;34770;49.272;11.070;2022-11-20T01:16:48;25.83;;;16.30;;
16029;SDS011;34770;49.272;11.070;2022-11-20T01:19:16;30.30;;;15.93;;
16029;SDS011;34770;49.272;11.070;2022-11-20T01:21:45;26.80;;;15.37;;
16029;SDS011;34770;49.272;11.070;2022-11-20T01:24:14;25.07;;;14.83;;
16029;SDS011;34770;49.272;11.070;2022-11-20T01:26:41;26.00;;;15.87;;
16029;SDS011;34770;49.272;11.070;2022-11-20T01:29:14;29.17;;;14.87;;
16029;SDS011;34770;49.272;11.070;2022-11-20T01:31:42;23.70;;;14.50;;
16029;SDS011;34770;49.272;11.070;2022-11-20T01:34:17;28.30;;;15.73;;
16029;SDS011;34770;49.272;11.070;2022-11-20T01:36:44;28.53;;;16.57;;
16029;SDS011;34770;49.272;11.070;2022-11-20T01:39:11;24.07;;;13.97;;
16029;SDS011;34770;49.272;11.070;2022-11-20T01:41:40;23.80;;;14.43;;
16029;SDS011;34770;49.272;11.070;2022-11-20T01:47:24;22.23;;;14.33;;
16029;SDS011;34770;49.272;11.070;2022-11-20T01:49:58;23.60;;;15.30;;
16029;SDS011;34770;49.272;11.070;2022-11-20T01:52:30;27.13;;;14.87;;
16029;SDS011;34770;49.272;11.070;2022-11-20T01:55:04;22.73;;;14.90;;
16029;SDS011;34770;49.272;11.070;2022-11-20T01:57:31;27.33;;;15.47;;
16029;SDS011;34770;49.272;11.070;2022-11-20T02:00:00;22.83;;;13.87;;
16029;SDS011;34770;49.272;11.070;2022-11-20T02:02:31;27.90;;;16.13;;
16029;SDS011;34770;49.272;11.070;2022-11-20T02:04:57;21.97;;;13.20;;
16029;SDS011;34770;49.272;11.070;2022-11-20T02:07:34;24.60;;;14.73;;
16029;SDS011;34770;49.272;11.070;2022-11-20T02:10:00;22.47;;;14.27;;
16029;SDS011;34770;49.272;11.070;2022-11-20T02:12:26;24.33;;;15.27;;
16029;SDS011;34770;49.272;11.070;2022-11-20T02:15:10;21.80;;;13.73;;
16029;SDS011;34770;49.272;11.070;2022-11-20T02:17:36;22.80;;;14.07;;
16029;SDS011;34770;49.272;11.070;2022-11-20T02:20:02;22.80;;;14.60;;
16029;SDS011;34770;49.272;11.070;2022-11-20T02:22:31;21.80;;;13.30;;
16029;SDS011;34770;49.272;11.070;2022-11-20T02:25:04;22.77;;;13.77;;
16029;SDS011;34770;49.272;11.070;2022-11-20T02:27:32;23.50;;;14.17;;
16029;SDS011;34770;49.272;11.070;2022-11-20T02:29:59;23.67;;;13.60;;
16029;SDS011;34770;49.272;11.070;2022-11-20T02:34:54;24.43;;;14.43;;
16029;SDS011;34770;49.272;11.070;2022-11-20T02:37:20;23.37;;;13.73;;
16029;SDS011;34770;49.272;11.070;2022-11-20T02:39:47;20.87;;;12.73;;
16029;SDS011;34770;49.272;11.070;2022-11-20T02:42:15;20.77;;;12.97;;
16029;SDS011;34770;49.272;11.070;2022-11-20T02:44:40;23.80;;;13.93;;
16029;SDS011;34770;49.272;11.070;2022-11-20T02:47:06;21.53;;;13.80;;
16029;SDS011;34770;49.272;11.070;2022-11-20T02:49:32;23.80;;;13.47;;
16029;SDS011;34770;49.272;11.070;2022-11-20T02:51:58;24.67;;;15.03;;
16029;SDS011;34770;49.272;11.070;2022-11-20T02:54:24;25.70;;;14.03;;
16029;SDS011;34770;49.272;11.070;2022-11-20T02:56:50;21.97;;;13.20;;
16029;SDS011;34770;49.272;11.070;2022-11-20T02:59:16;22.17;;;12.83;;
16029;SDS011;34770;49.272;11.070;2022-11-20T03:01:41;23.23;;;13.50;;
16029;SDS011;34770;49.272;11.070;2022-11-20T03:04:07;21.83;;;14.23;;
16029;SDS011;34770;49.272;11.070;2022-11-20T03:06:32;27.07;;;14.50;;
16029;SDS011;34770;49.272;11.070;2022-11-20T03:08:58;23.77;;;13.20;;
16029;SDS011;34770;49.272;11.070;2022-11-20T03:11:24;22.23;;;13.70;;
16029;SDS011;34770;49.272;11.070;2022-11-20T03:14:09;19.13;;;12.37;;
16029;SDS011;34770;49.272;11.070;2022-11-20T03:16:34;20.60;;;11.93;;
16029;SDS011;34770;49.272;11.070;2022-11-20T03:19:00;25.07;;;13.27;;
16029;SDS011;34770;49.272;11.070;2022-11-20T03:21:26;20.77;;;12.43;;
16029;SDS011;34770;49.272;11.070;2022-11-20T03:23:52;22.23;;;12.97;;
16029;SDS011;34770;49.272;11.070;2022-11-20T03:26:20;22.23;;;13.33;;
16029;SDS011;34770;49.272;11.070;2022-11-20T03:28:51;17.93;;;12.07;;
16029;SDS011;34770;49.272;11.070;2022-11-20T03:31:19;17.70;;;11.80;;
16029;SDS011;34770;49.272;11.070;2022-11-20T03:33:47;18.60;;;12.63;;
16029;SDS011;34770;49.272;11.070;2022-11-20T03:36:13;18.00;;;11.03;;
16029;SDS011;34770;49.272;11.070;2022-11-20T03:38:40;21.47;;;11.87;;
16029;SDS011;34770;49.272;11.070;2022-11-20T03:41:07;21.50;;;12.87;;
16029;SDS011;34770;49.272;11.070;2022-11-20T03:43:35;18.30;;;11.33;;
16029;SDS011;34770;49.272;11.070;2022-11-20T03:46:01;16.80;;;11.63;;
16029;SDS011;34770;49.272;11.070;2022-11-20T03:48:27;17.57;;;11.27;;
16029;SDS011;34770;49.272;11.070;2022-11-20T03:50:54;21.60;;;12.83;;
16029;SDS011;34770;49.272;11.070;2022-11-20T03:53:35;17.03;;;10.93;;
16029;SDS011;34770;49.272;11.070;2022-11-20T03:56:01;16.80;;;10.87;;
16029;SDS011;34770;49.272;11.070;2022-11-20T03:58:26;16.73;;;11.43;;
16029;SDS011;34770;49.272;11.070;2022-11-20T04:00:52;18.90;;;11.83;;
16029;SDS011;34770;49.272;11.070;2022-11-20T04:03:17;16.53;;;11.00;;
16029;SDS011;34770;49.272;11.070;2022-11-20T04:05:43;19.10;;;13.03;;
16029;SDS011;34770;49.272;11.070;2022-11-20T04:08:08;17.40;;;11.17;;
16029;SDS011;34770;49.272;11.070;2022-11-20T04:10:34;17.50;;;11.73;;
16029;SDS011;34770;49.272;11.070;2022-11-20T04:12:59;17.93;;;11.10;;
16029;SDS011;34770;49.272;11.070;2022-11-20T04:15:25;16.50;;;11.67;;
16029;SDS011;34770;49.272;11.070;2022-11-20T04:17:50;24.43;;;13.87;;
16029;SDS011;34770;49.272;11.070;2022-11-20T04:20:16;23.03;;;12.53;;
16029;SDS011;34770;49.272;11.070;2022-11-20T04:22:41;22.13;;;12.97;;
16029;SDS011;34770;49.272;11.070;2022-11-20T04:25:07;21.43;;;12.13;;
16029;SDS011;34770;49.272;11.070;2022-11-20T04:27:33;18.77;;;11.07;;
16029;SDS011;34770;49.272;11.070;2022-11-20T04:29:59;18.67;;;12.57;;
16029;SDS011;34770;49.272;11.070;2022-11-20T04:32:24;18.13;;;10.93;;
16029;SDS011;34770;49.272;11.070;2022-11-20T04:34:49;18.23;;;12.03;;
16029;SDS011;34770;49.272;11.070;2022-11-20T04:37:15;17.63;;;11.70;;
16029;SDS011;34770;49.272;11.070;2022-11-20T04:39:40;17.27;;;10.97;;
16029;SDS011;34770;49.272;11.070;2022-11-20T04:42:07;17.90;;;11.27;;
16029;SDS011;34770;49.272;11.070;2022-11-20T04:44:53;19.83;;;12.70;;
16029;SDS011;34770;49.272;11.070;2022-11-20T04:47:18;17.17;;;11.47;;
16029;SDS011;34770;49.272;11.070;2022-11-20T04:49:44;15.60;;;10.43;;
16029;SDS011;34770;49.272;11.070;2022-11-20T04:52:09;16.80;;;11.27;;
16029;SDS011;34770;49.272;11.070;2022-11-20T04:54:35;19.50;;;11.43;;
16029;SDS011;34770;49.272;11.070;2022-11-20T04:57:00;21.77;;;11.27;;
16029;SDS011;34770;49.272;11.070;2022-11-20T04:59:26;17.10;;;10.93;;
16029;SDS011;34770;49.272;11.070;2022-11-20T05:01:51;16.33;;;11.20;;
16029;SDS011;34770;49.272;11.070;2022-11-20T05:04:17;17.23;;;11.57;;
16029;SDS011;34770;49.272;11.070;2022-11-20T05:06:42;17.63;;;11.27;;
16029;SDS011;34770;49.272;11.070;2022-11-20T05:09:08;16.07;;;10.63;;
16029;SDS011;34770;49.272;11.070;2022-11-20T05:11:33;17.60;;;12.60;;
16029;SDS011;34770;49.272;11.070;2022-11-20T05:13:59;17.20;;;11.30;;
16029;SDS011;34770;49.272;11.070;2022-11-20T05:16:25;15.80;;;10.53;;
16029;SDS011;34770;49.272;11.070;2022-11-20T05:18:51;15.23;;;10.00;;
16029;SDS011;34770;49.272;11.070;2022-11-20T05:21:18;19.73;;;11.27;;
16029;SDS011;34770;49.272;11.070;2022-11-20T05:23:44;14.60;;;10.33;;
16029;SDS011;34770;49.272;11.070;2022-11-20T05:26:14;16.40;;;11.20;;
16029;SDS011;34770;49.272;11.070;2022-11-20T05:28:41;18.27;;;11.73;;
16029;SDS011;34770;49.272;11.070;2022-11-20T05:31:07;17.43;;;11.53;;
16029;SDS011;34770;49.272;11.070;2022-11-20T05:33:34;16.97;;;10.80;;
16029;SDS011;34770;49.272;11.070;2022-11-20T05:36:01;11.70;;;9.37;;
16029;SDS011;34770;49.272;11.070;2022-11-20T05:38:28;15.27;;;10.03;;
16029;SDS011;34770;49.272;11.070;2022-11-20T05:40:54;13.40;;;10.03;;
16029;SDS011;34770;49.272;11.070;2022-11-20T05:43:19;15.27;;;10.10;;
16029;SDS011;34770;49.272;11.070;2022-11-20T05:45:51;15.00;;;10.20;;
16029;SDS011;34770;49.272;11.070;2022-11-20T05:48:20;15.53;;;10.90;;
16029;SDS011;34770;49.272;11.070;2022-11-20T05:50:46;13.43;;;9.70;;
16029;SDS011;34770;49.272;11.070;2022-11-20T05:53:12;14.37;;;9.77;;
16029;SDS011;34770;49.272;11.070;2022-11-20T05:55:38;19.70;;;11.00;;
16029;SDS011;34770;49.272;11.070;2022-11-20T05:58:04;14.50;;;9.70;;
16029;SDS011;34770;49.272;11.070;2022-11-20T06:00:29;14.33;;;10.27;;
16029;SDS011;34770;49.272;11.070;2022-11-20T06:02:55;14.03;;;9.63;;
16029;SDS011;34770;49.272;11.070;2022-11-20T06:05:20;13.33;;;9.33;;
16029;SDS011;34770;49.272;11.070;2022-11-20T06:07:46;13.30;;;9.20;;
16029;SDS011;34770;49.272;11.070;2022-11-20T06:10:11;13.50;;;9.83;;
16029;SDS011;34770;49.272;11.070;2022-11-20T06:12:37;14.33;;;10.90;;
16029;SDS011;34770;49.272;11.070;2022-11-20T06:15:03;15.00;;;10.73;;
16029;SDS011;34770;49.272;11.070;2022-11-20T06:17:29;14.83;;;10.37;;
16029;SDS011;34770;49.272;11.070;2022-11-20T06:19:55;13.47;;;9.83;;
16029;SDS011;34770;49.272;11.070;2022-11-20T06:22:20;19.53;;;10.00;;
16029;SDS011;34770;49.272;11.070;2022-11-20T06:24:46;14.90;;;9.80;;
16029;SDS011;34770;49.272;11.070;2022-11-20T06:27:12;15.73;;;11.00;;
16029;SDS011;34770;49.272;11.070;2022-11-20T06:29:37;16.27;;;9.67;;
16029;SDS011;34770;49.272;11.070;2022-11-20T06:32:03;13.93;;;9.60;;
16029;SDS011;34770;49.272;11.070;2022-11-20T06:34:28;14.23;;;9.50;;
16029;SDS011;34770;49.272;11.070;2022-11-20T06:36:54;18.90;;;12.03;;
16029;SDS011;34770;49.272;11.070;2022-11-20T06:39:19;19.23;;;12.97;;
16029;SDS011;34770;49.272;11.070;2022-11-20T06:41:45;17.67;;;11.67;;
16029;SDS011;34770;49.272;11.070;2022-11-20T06:44:10;19.50;;;12.60;;
16029;SDS011;34770;49.272;11.070;2022-11-20T06:46:36;17.50;;;10.80;;
16029;SDS011;34770;49.272;11.070;2022-11-20T06:49:01;14.37;;;10.33;;
16029;SDS011;34770;49.272;11.070;2022-11-20T06:51:27;15.80;;;11.10;;
16029;SDS011;34770;49.272;11.070;2022-11-20T06:53:53;18.80;;;12.57;;
16029;SDS011;34770;49.272;11.070;2022-11-20T06:56:19;27.90;;;16.53;;
16029;SDS011;34770;49.272;11.070;2022-11-20T06:58:45;19.90;;;12.70;;
16029;SDS011;34770;49.272;11.070;2022-11-20T07:01:11;19.60;;;12.20;;
16029;SDS011;34770;49.272;11.070;2022-11-20T07:03:38;19.77;;;12.30;;
16029;SDS011;34770;49.272;11.070;2022-11-20T07:06:05;15.87;;;10.83;;
16029;SDS011;34770;49.272;11.070;2022-11-20T07:08:31;16.03;;;10.37;;
16029;SDS011;34770;49.272;11.070;2022-11-20T07:10:57;18.90;;;11.80;;
16029;SDS011;34770;49.272;11.070;2022-11-20T07:13:24;17.60;;;11.73;;
16029;SDS011;34770;49.272;11.070;2022-11-20T07:15:50;14.77;;;9.77;;
16029;SDS011;34770;49.272;11.070;2022-11-20T07:18:16;13.53;;;10.40;;
16029;SDS011;34770;49.272;11.070;2022-11-20T07:20:41;14.77;;;10.00;;
16029;SDS011;34770;49.272;11.070;2022-11-20T07:23:07;16.20;;;10.67;;
16029;SDS011;34770;49.272;11.070;2022-11-20T07:25:32;14.80;;;10.27;;
16029;SDS011;34770;49.272;11.070;2022-11-20T07:27:58;17.67;;;11.30;;
16029;SDS011;34770;49.272;11.070;2022-11-20T07:30:24;15.27;;;10.93;;
16029;SDS011;34770;49.272;11.070;2022-11-20T07:32:51;17.80;;;12.23;;
16029;SDS011;34770;49.272;11.070;2022-11-20T07:35:17;17.53;;;12.20;;
16029;SDS011;34770;49.272;11.070;2022-11-20T07:37:43;14.53;;;10.87;;
16029;SDS011;34770;49.272;11.070;2022-11-20T07:40:08;16.50;;;11.37;;
16029;SDS011;34770;49.272;11.070;2022-11-20T07:42:34;18.20;;;12.20;;
16029;SDS011;34770;49.272;11.070;2022-11-20T07:45:00;17.37;;;11.23;;
16029;SDS011;34770;49.272;11.070;2022-11-20T07:47:25;17.60;;;12.77;;
16029;SDS011;34770;49.272;11.070;2022-11-20T07:49:51;16.17;;;12.37;;
16029;SDS011;34770;49.272;11.070;2022-11-20T07:52:16;20.33;;;14.10;;
16029;SDS011;34770;49.272;11.070;2022-11-20T07:54:42;15.93;;;11.10;;
16029;SDS011;34770;49.272;11.070;2022-11-20T07:57:07;15.97;;;10.27;;
16029;SDS011;34770;49.272;11.070;2022-11-20T07:59:32;13.80;;;9.20;;
16029;SDS011;34770;49.272;11.070;2022-11-20T08:01:58;11.73;;;9.43;;
16029;SDS011;34770;49.272;11.070;2022-11-20T08:04:24;13.77;;;9.40;;
16029;SDS011;34770;49.272;11.070;2022-11-20T08:06:49;17.07;;;11.70;;
16029;SDS011;34770;49.272;11.070;2022-11-20T08:09:17;13.47;;;9.53;;
16029;SDS011;34770;49.272;11.070;2022-11-20T08:11:42;13.90;;;10.07;;
16029;SDS011;34770;49.272;11.070;2022-11-20T08:14:26;15.40;;;10.50;;
16029;SDS011;34770;49.272;11.070;2022-11-20T08:16:52;14.60;;;10.23;;
16029;SDS011;34770;49.272;11.070;2022-11-20T08:19:18;15.83;;;11.53;;
16029;SDS011;34770;49.272;11.070;2022-11-20T08:21:44;15.83;;;10.07;;
16029;SDS011;34770;49.272;11.070;2022-11-20T08:24:09;13.77;;;10.17;;
16029;SDS011;34770;49.272;11.070;2022-11-20T08:26:36;13.80;;;10.03;;
16029;SDS011;34770;49.272;11.070;2022-11-20T08:29:03;15.80;;;10.20;;
16029;SDS011;34770;49.272;11.070;2022-11-20T08:31:29;13.23;;;10.37;;
16029;SDS011;34770;49.272;11.070;2022-11-20T08:33:54;12.47;;;9.90;;
16029;SDS011;34770;49.272;11.070;2022-11-20T08:36:20;14.43;;;10.43;;
16029;SDS011;34770;49.272;11.070;2022-11-20T08:38:47;15.50;;;10.97;;
16029;SDS011;34770;49.272;11.070;2022-11-20T08:41:14;17.33;;;13.03;;
16029;SDS011;34770;49.272;11.070;2022-11-20T08:43:48;20.97;;;14.83;;
16029;SDS011;34770;49.272;11.070;2022-11-20T08:46:14;18.40;;;13.80;;
16029;SDS011;34770;49.272;11.070;2022-11-20T08:48:40;21.07;;;15.23;;
16029;SDS011;34770;49.272;11.070;2022-11-20T08:51:06;20.77;;;15.33;;
16029;SDS011;34770;49.272;11.070;2022-11-20T08:53:31;19.83;;;16.37;;
16029;SDS011;34770;49.272;11.070;2022-11-20T08:55:56;19.60;;;14.77;;
16029;SDS011;34770;49.272;11.070;2022-11-20T08:58:23;18.23;;;15.20;;
16029;SDS011;34770;49.272;11.070;2022-11-20T09:00:48;20.80;;;16.33;;
16029;SDS011;34770;49.272;11.070;2022-11-20T09:03:14;22.83;;;16.73;;
16029;SDS011;34770;49.272;11.070;2022-11-20T09:05:39;19.90;;;14.97;;
16029;SDS011;34770;49.272;11.070;2022-11-20T09:08:05;20.60;;;13.90;;
16029;SDS011;34770;49.272;11.070;2022-11-20T09:10:30;22.33;;;16.27;;
16029;SDS011;34770;49.272;11.070;2022-11-20T09:12:57;22.00;;;15.93;;
16029;SDS011;34770;49.272;11.070;2022-11-20T09:15:23;21.57;;;16.17;;
16029;SDS011;34770;49.272;11.070;2022-11-20T09:17:59;23.10;;;16.43;;
16029;SDS011;34770;49.272;11.070;2022-11-20T09:20:26;21.83;;;16.00;;
16029;SDS011;34770;49.272;11.070;2022-11-20T09:22:53;25.97;;;17.00;;
16029;SDS011;34770;49.272;11.070;2022-11-20T09:25:19;23.27;;;15.67;;
16029;SDS011;34770;49.272;11.070;2022-11-20T09:27:45;27.43;;;16.90;;
16029;SDS011;34770;49.272;11.070;2022-11-20T09:30:11;27.83;;;16.87;;
16029;SDS011;34770;49.272;11.070;2022-11-20T09:32:41;23.73;;;13.77;;
16029;SDS011;34770;49.272;11.070;2022-11-20T09:35:07;19.47;;;12.23;;
16029;SDS011;34770;49.272;11.070;2022-11-20T09:37:33;15.17;;;10.53;;
16029;SDS011;34770;49.272;11.070;2022-11-20T09:39:58;12.57;;;9.23;;
16029;SDS011;34770;49.272;11.070;2022-11-20T09:42:45;12.40;;;9.67;;
16029;SDS011;34770;49.272;11.070;2022-11-20T09:48:22;5.57;;;4.50;;
16029;SDS011;34770;49.272;11.070;2022-11-20T09:50:57;4.10;;;3.70;;
16029;SDS011;34770;49.272;11.070;2022-11-20T09:56:13;3.60;;;3.30;;
16029;SDS011;34770;49.272;11.070;2022-11-20T09:58:43;3.70;;;3.37;;
16029;SDS011;34770;49.272;11.070;2022-11-20T10:01:14;6.57;;;4.47;;
16029;SDS011;34770;49.272;11.070;2022-11-20T10:06:29;4.60;;;4.20;;
16029;SDS011;34770;49.272;11.070;2022-11-20T10:14:29;3.50;;;3.20;;
16029;SDS011;34770;49.272;11.070;2022-11-20T10:31:20;4.00;;;3.67;;
16029;SDS011;34770;49.272;11.070;2022-11-20T10:34:27;5.20;;;3.70;;
16029;SDS011;34770;49.272;11.070;2022-11-20T10:37:00;4.77;;;4.17;;
16029;SDS011;34770;49.272;11.070;2022-11-20T10:42:28;4.70;;;4.20;;
16029;SDS011;34770;49.272;11.070;2022-11-20T10:45:04;5.83;;;5.23;;
16029;SDS011;34770;49.272;11.070;2022-11-20T10:47:42;4.83;;;4.43;;
16029;SDS011;34770;49.272;11.070;2022-11-20T10:50:09;5.67;;;5.07;;
16029;SDS011;34770;49.272;11.070;2022-11-20T10:55:33;7.30;;;5.80;;
16029;SDS011;34770;49.272;11.070;2022-11-20T10:58:14;8.77;;;6.20;;
16029;SDS011;34770;49.272;11.070;2022-11-20T11:00:49;8.10;;;5.67;;
16029;SDS011;34770;49.272;11.070;2022-11-20T11:03:24;10.13;;;7.97;;
16029;SDS011;34770;49.272;11.070;2022-11-20T11:05:58;5.30;;;4.80;;
16029;SDS011;34770;49.272;11.070;2022-11-20T11:08:36;5.20;;;4.67;;
16029;SDS011;34770;49.272;11.070;2022-11-20T11:11:12;4.83;;;4.33;;
16029;SDS011;34770;49.272;11.070;2022-11-20T11:13:45;6.43;;;4.87;;
16029;SDS011;34770;49.272;11.070;2022-11-20T11:16:21;5.23;;;4.47;;
16029;SDS011;34770;49.272;11.070;2022-11-20T11:18:50;7.37;;;4.80;;
16029;SDS011;34770;49.272;11.070;2022-11-20T11:21:23;7.10;;;6.23;;
16029;SDS011;34770;49.272;11.070;2022-11-20T11:23:57;6.17;;;5.47;;
16029;SDS011;34770;49.272;11.070;2022-11-20T11:26:24;5.40;;;4.90;;
16029;SDS011;34770;49.272;11.070;2022-11-20T11:28:58;4.80;;;4.40;;
16029;SDS011;34770;49.272;11.070;2022-11-20T11:31:25;3.40;;;3.10;;
16029;SDS011;34770;49.272;11.070;2022-11-20T11:34:03;4.07;;;3.70;;
16029;SDS011;34770;49.272;11.070;2022-11-20T11:36:51;4.43;;;4.03;;
16029;SDS011;34770;49.272;11.070;2022-11-20T11:39:21;4.43;;;4.03;;
16029;SDS011;34770;49.272;11.070;2022-11-20T11:41:47;3.60;;;3.40;;
16029;SDS011;34770;49.272;11.070;2022-11-20T11:44:18;4.33;;;3.83;;
16029;SDS011;34770;49.272;11.070;2022-11-20T11:47:05;3.97;;;3.67;;
16029;SDS011;34770;49.272;11.070;2022-11-20T11:49:36;4.37;;;3.97;;
16029;SDS011;34770;49.272;11.070;2022-11-20T11:57:14;7.63;;;6.88;;
16029;SDS011;34770;49.272;11.070;2022-11-20T12:02:57;4.40;;;4.10;;
16029;SDS011;34770;49.272;11.070;2022-11-20T12:05:49;3.90;;;3.60;;
16029;SDS011;34770;49.272;11.070;2022-11-20T12:08:31;4.47;;;4.07;;
16029;SDS011;34770;49.272;11.070;2022-11-20T12:13:47;5.22;;;4.07;;
16029;SDS011;34770;49.272;11.070;2022-11-20T12:16:18;3.63;;;3.33;;
16029;SDS011;34770;49.272;11.070;2022-11-20T12:18:45;2.93;;;2.73;;
16029;SDS011;34770;49.272;11.070;2022-11-20T12:43:59;2.43;;;2.23;;
16029;SDS011;34770;49.272;11.070;2022-11-20T12:47:47;4.97;;;4.40;;
16029;SDS011;34770;49.272;11.070;2022-11-20T12:50:15;5.23;;;4.77;;
16029;SDS011;34770;49.272;11.070;2022-11-20T12:55:35;2.77;;;2.57;;
16029;SDS011;34770;49.272;11.070;2022-11-20T12:58:29;8.87;;;7.50;;
16029;SDS011;34770;49.272;11.070;2022-11-20T13:04:30;4.90;;;4.40;;
16029;SDS011;34770;49.272;11.070;2022-11-20T13:07:12;5.97;;;3.80;;
16029;SDS011;34770;49.272;11.070;2022-11-20T13:09:42;6.97;;;5.17;;
16029;SDS011;34770;49.272;11.070;2022-11-20T13:12:13;4.00;;;3.53;;
16029;SDS011;34770;49.272;11.070;2022-11-20T13:17:34;5.63;;;4.07;;
16029;SDS011;34770;49.272;11.070;2022-11-20T13:20:17;2.80;;;2.60;;
16029;SDS011;34770;49.272;11.070;2022-11-20T13:22:45;4.07;;;3.57;;
16029;SDS011;34770;49.272;11.070;2022-11-20T13:25:22;6.67;;;4.53;;
16029;SDS011;34770;49.272;11.070;2022-11-20T13:28:05;3.67;;;3.00;;
16029;SDS011;34770;49.272;11.070;2022-11-20T13:30:49;4.50;;;3.43;;
16029;SDS011;34770;49.272;11.070;2022-11-20T13:33:33;3.53;;;3.20;;
16029;SDS011;34770;49.272;11.070;2022-11-20T13:36:02;3.70;;;3.43;;
16029;SDS011;34770;49.272;11.070;2022-11-20T13:38:28;2.53;;;2.33;;
16029;SDS011;34770;49.272;11.070;2022-11-20T13:41:07;2.53;;;2.43;;
16029;SDS011;34770;49.272;11.070;2022-11-20T13:43:52;2.43;;;2.33;;
16029;SDS011;34770;49.272;11.070;2022-11-20T13:46:17;2.60;;;2.13;;
16029;SDS011;34770;49.272;11.070;2022-11-20T13:48:49;2.40;;;2.20;;
16029;SDS011;34770;49.272;11.070;2022-11-20T13:54:16;2.40;;;2.20;;
16029;SDS011;34770;49.272;11.070;2022-11-20T14:02:19;2.90;;;2.70;;
16029;SDS011;34770;49.272;11.070;2022-11-20T14:04:48;2.67;;;2.50;;
16029;SDS011;34770;49.272;11.070;2022-11-20T14:15:02;4.63;;;4.23;;
16029;SDS011;34770;49.272;11.070;2022-11-20T14:38:20;4.93;;;4.03;;
16029;SDS011;34770;49.272;11.070;2022-11-20T14:43:39;4.57;;;4.17;;
16029;SDS011;34770;49.272;11.070;2022-11-20T14:46:24;4.10;;;3.70;;
